Time;durP1;ratioP1;P1;durP2;ratioP2;P2;SDS_P1;SDS_P2;PMS_P1;PMS_P2;Temp;Humidity;BMP_temperature;BMP_pressure;BME280_temperature;BME280_humidity;BME280_pressure;Samples;Min_cycle;Max_cycle;Signal;HPM_P1;HPM_P2
2023/08/02 00:02:23;;;;;;;4.97;0.85;;;;;;;;;;5045923;28;20048;-66
2023/08/02 00:04:49;;;;;;;3.33;0.88;;;;;;;;;;5044951;28;20044;-66
2023/08/02 00:07:15;;;;;;;2.88;0.70;;;;;;;;;;5046518;28;20029;-66
2023/08/02 00:09:41;;;;;;;5.03;1.00;;;;;;;;;;5045843;28;20047;-66
2023/08/02 00:12:07;;;;;;;4.25;1.20;;;;;;;;;;5045728;28;20123;-66
2023/08/02 00:14:33;;;;;;;4.70;1.02;;;;;;;;;;5045857;28;21100;-66
2023/08/02 00:16:59;;;;;;;5.45;1.20;;;;;;;;;;5046437;28;20043;-66
2023/08/02 00:19:25;;;;;;;3.92;1.15;;;;;;;;;;5044419;28;20067;-66
2023/08/02 00:21:51;;;;;;;5.40;1.20;;;;;;;;;;5042843;28;20110;-66
2023/08/02 00:24:17;;;;;;;4.38;1.23;;;;;;;;;;5044345;28;20162;-66
2023/08/02 00:26:43;;;;;;;5.93;1.35;;;;;;;;;;5044797;28;20090;-66
2023/08/02 00:29:09;;;;;;;4.78;1.10;;;;;;;;;;5044460;28;20102;-66
2023/08/02 00:31:35;;;;;;;3.45;1.52;;;;;;;;;;5045003;28;20103;-66
2023/08/02 00:34:01;;;;;;;4.32;1.15;;;;;;;;;;5043396;28;20465;-66
2023/08/02 00:36:30;;;;;;;3.67;1.45;;;;;;;;;;5044163;28;20556;-66
2023/08/02 00:38:56;;;;;;;6.20;1.50;;;;;;;;;;5043637;28;20028;-66
2023/08/02 00:41:22;;;;;;;3.08;1.55;;;;;;;;;;5044605;28;20032;-66
2023/08/02 00:43:48;;;;;;;5.30;2.15;;;;;;;;;;5045205;28;20045;-66
2023/08/02 00:46:18;;;;;;;5.45;1.75;;;;;;;;;;5045175;28;20044;-66
2023/08/02 00:48:47;;;;;;;4.80;1.70;;;;;;;;;;5045119;28;20042;-66
2023/08/02 00:51:17;;;;;;;8.18;2.17;;;;;;;;;;5045021;28;20041;-66
2023/08/02 00:53:43;;;;;;;7.03;1.90;;;;;;;;;;5043861;28;20028;-67
2023/08/02 00:56:10;;;;;;;5.63;1.75;;;;;;;;;;5028908;28;20135;-67
2023/08/02 00:58:36;;;;;;;5.75;1.83;;;;;;;;;;5041962;28;20111;-66
2023/08/02 01:01:08;;;;;;;7.70;1.83;;;;;;;;;;5044416;28;20036;-66
2023/08/02 01:03:35;;;;;;;6.20;2.08;;;;;;;;;;5042707;28;20663;-66
2023/08/02 01:06:06;;;;;;;5.80;2.28;;;;;;;;;;5043479;28;20039;-66
2023/08/02 01:08:34;;;;;;;6.25;2.28;;;;;;;;;;5043924;28;20830;-66
2023/08/02 01:11:26;;;;;;;5.00;1.85;;;;;;;;;;5043840;28;20051;-66
2023/08/02 01:13:54;;;;;;;6.32;1.95;;;;;;;;;;5020674;28;20041;-66
2023/08/02 01:16:20;;;;;;;8.57;2.13;;;;;;;;;;5025376;28;20447;-66
2023/08/02 01:18:46;;;;;;;4.68;2.10;;;;;;;;;;5046994;28;20507;-66
2023/08/02 01:21:12;;;;;;;7.38;2.05;;;;;;;;;;5049684;28;20871;-66
2023/08/02 01:23:39;;;;;;;7.68;2.33;;;;;;;;;;5049266;28;20119;-66
2023/08/02 01:26:05;;;;;;;5.03;2.25;;;;;;;;;;5048231;28;20029;-67
2023/08/02 01:28:33;;;;;;;7.20;2.20;;;;;;;;;;5047827;28;20128;-66
2023/08/02 01:31:01;;;;;;;8.10;2.45;;;;;;;;;;5047422;28;20048;-66
2023/08/02 01:33:28;;;;;;;9.05;2.50;;;;;;;;;;5046511;28;20036;-66
2023/08/02 01:35:54;;;;;;;6.72;2.42;;;;;;;;;;5048564;28;20029;-66
2023/08/02 01:38:20;;;;;;;7.60;2.58;;;;;;;;;;5046591;28;20033;-66
2023/08/02 01:40:46;;;;;;;7.07;2.25;;;;;;;;;;5047992;28;20055;-66
2023/08/02 01:43:12;;;;;;;8.50;2.40;;;;;;;;;;5046506;28;20036;-66
2023/08/02 01:45:38;;;;;;;8.35;2.95;;;;;;;;;;5048681;28;20047;-66
2023/08/02 01:48:05;;;;;;;10.57;2.92;;;;;;;;;;5048288;28;20050;-66
2023/08/02 01:50:31;;;;;;;7.65;2.60;;;;;;;;;;5049047;28;20032;-66
2023/08/02 01:52:57;;;;;;;6.72;2.40;;;;;;;;;;5048128;28;20084;-66
2023/08/02 01:55:23;;;;;;;11.65;2.65;;;;;;;;;;5048219;28;20139;-67
2023/08/02 01:57:49;;;;;;;6.30;2.63;;;;;;;;;;5047367;28;20072;-66
2023/08/02 02:00:15;;;;;;;10.07;2.67;;;;;;;;;;5048427;28;20047;-66
2023/08/02 02:02:41;;;;;;;9.57;2.70;;;;;;;;;;5046776;28;20055;-66
2023/08/02 02:05:07;;;;;;;8.25;2.97;;;;;;;;;;5047348;28;20040;-66
2023/08/02 02:07:33;;;;;;;7.35;3.30;;;;;;;;;;5028401;28;20043;-66
2023/08/02 02:09:59;;;;;;;7.43;2.72;;;;;;;;;;5047287;28;20020;-66
2023/08/02 02:12:27;;;;;;;8.07;3.20;;;;;;;;;;5046706;28;20663;-66
2023/08/02 02:14:53;;;;;;;5.07;2.42;;;;;;;;;;5047139;28;20032;-66
2023/08/02 02:17:19;;;;;;;7.75;2.45;;;;;;;;;;5047420;28;20037;-66
2023/08/02 02:19:45;;;;;;;9.23;2.95;;;;;;;;;;5033460;28;20051;-66
2023/08/02 02:22:11;;;;;;;8.68;2.85;;;;;;;;;;5046719;28;20057;-66
2023/08/02 02:24:37;;;;;;;8.20;2.70;;;;;;;;;;5047580;28;20036;-66
2023/08/02 02:27:03;;;;;;;8.13;2.35;;;;;;;;;;5047246;28;20047;-66
2023/08/02 02:29:29;;;;;;;8.38;2.65;;;;;;;;;;5045669;28;20040;-66
2023/08/02 02:31:55;;;;;;;7.07;2.50;;;;;;;;;;5046996;28;20036;-67
2023/08/02 02:34:21;;;;;;;7.93;2.70;;;;;;;;;;5047039;28;20032;-66
2023/08/02 02:36:48;;;;;;;7.10;3.05;;;;;;;;;;5046026;28;20118;-66
2023/08/02 02:39:14;;;;;;;9.48;2.30;;;;;;;;;;5046335;28;20043;-66
2023/08/02 02:41:40;;;;;;;8.27;2.20;;;;;;;;;;5047364;28;20596;-66
2023/08/02 02:44:06;;;;;;;9.30;2.67;;;;;;;;;;5047493;28;20529;-66
2023/08/02 02:46:32;;;;;;;7.53;2.40;;;;;;;;;;5047196;28;21311;-66
2023/08/02 02:48:58;;;;;;;6.90;2.33;;;;;;;;;;5046431;28;20646;-66
2023/08/02 02:51:24;;;;;;;9.40;2.70;;;;;;;;;;5048210;28;20047;-66
2023/08/02 02:53:50;;;;;;;7.07;2.30;;;;;;;;;;5047670;28;20032;-66
2023/08/02 02:56:16;;;;;;;8.25;2.70;;;;;;;;;;5047209;28;20032;-66
2023/08/02 02:58:42;;;;;;;8.95;2.63;;;;;;;;;;5047633;28;20067;-66
2023/08/02 03:01:08;;;;;;;8.45;2.67;;;;;;;;;;5047585;28;20037;-66
2023/08/02 03:03:35;;;;;;;10.57;2.72;;;;;;;;;;5046537;28;20032;-66
2023/08/02 03:06:01;;;;;;;11.77;3.13;;;;;;;;;;5046501;28;20060;-66
2023/08/02 03:08:28;;;;;;;8.90;3.08;;;;;;;;;;5045404;28;20082;-66
2023/08/02 03:10:54;;;;;;;8.50;2.50;;;;;;;;;;5028770;28;20040;-66
2023/08/02 03:13:20;;;;;;;10.30;2.75;;;;;;;;;;5046930;28;20062;-66
2023/08/02 03:15:46;;;;;;;10.82;3.10;;;;;;;;;;5046138;28;20071;-67
2023/08/02 03:18:12;;;;;;;9.05;2.80;;;;;;;;;;5025739;28;20063;-66
2023/08/02 03:20:39;;;;;;;9.50;3.30;;;;;;;;;;5045536;28;21195;-67
2023/08/02 03:23:05;;;;;;;10.55;3.38;;;;;;;;;;5046812;28;21371;-66
2023/08/02 03:25:31;;;;;;;8.63;2.70;;;;;;;;;;5044577;28;20090;-66
2023/08/02 03:27:57;;;;;;;11.00;2.70;;;;;;;;;;5045664;28;20025;-66
2023/08/02 03:30:23;;;;;;;7.70;3.25;;;;;;;;;;5044370;28;20069;-66
2023/08/02 03:32:50;;;;;;;10.25;3.20;;;;;;;;;;5043801;28;20043;-67
2023/08/02 03:35:16;;;;;;;11.25;4.10;;;;;;;;;;5046469;28;20037;-66
2023/08/02 03:37:42;;;;;;;10.90;2.83;;;;;;;;;;5044133;28;20062;-66
2023/08/02 03:40:08;;;;;;;10.07;3.65;;;;;;;;;;5044544;28;20036;-66
2023/08/02 03:42:34;;;;;;;9.02;3.20;;;;;;;;;;5044526;28;20036;-66
2023/08/02 03:45:00;;;;;;;10.15;4.00;;;;;;;;;;5045323;28;20123;-66
2023/08/02 03:47:26;;;;;;;8.52;3.67;;;;;;;;;;5046008;28;20040;-66
2023/08/02 03:49:52;;;;;;;9.75;2.85;;;;;;;;;;5046637;28;20051;-66
2023/08/02 03:52:18;;;;;;;10.07;3.47;;;;;;;;;;5046518;28;20041;-66
2023/08/02 03:54:44;;;;;;;10.38;3.47;;;;;;;;;;5045512;28;20254;-67
2023/08/02 03:57:10;;;;;;;11.10;3.88;;;;;;;;;;5045057;28;20674;-66
2023/08/02 03:59:36;;;;;;;11.88;3.67;;;;;;;;;;5045004;28;20064;-66
2023/08/02 04:02:03;;;;;;;13.10;4.15;;;;;;;;;;5045051;28;20772;-67
2023/08/02 04:04:29;;;;;;;14.45;3.80;;;;;;;;;;5046630;28;20093;-66
2023/08/02 04:06:55;;;;;;;21.02;4.65;;;;;;;;;;5044592;28;20047;-66
2023/08/02 04:09:21;;;;;;;12.32;3.92;;;;;;;;;;5046374;28;20041;-66
2023/08/02 04:11:47;;;;;;;16.38;4.45;;;;;;;;;;5045180;28;20052;-66
2023/08/02 04:14:13;;;;;;;15.60;4.07;;;;;;;;;;5045218;28;20044;-66
2023/08/02 04:16:39;;;;;;;14.65;4.20;;;;;;;;;;5045232;28;20028;-67
2023/08/02 04:19:05;;;;;;;11.38;3.75;;;;;;;;;;5027963;28;20076;-66
2023/08/02 04:21:31;;;;;;;17.45;4.90;;;;;;;;;;5047172;28;20043;-66
2023/08/02 04:23:57;;;;;;;16.15;3.90;;;;;;;;;;5046844;28;20041;-66
2023/08/02 04:26:23;;;;;;;12.13;3.97;;;;;;;;;;5045204;28;20034;-66
2023/08/02 04:28:49;;;;;;;13.75;5.15;;;;;;;;;;5044644;28;20041;-67
2023/08/02 04:31:15;;;;;;;11.23;4.63;;;;;;;;;;5045203;28;20037;-66
2023/08/02 04:33:41;;;;;;;15.15;5.00;;;;;;;;;;5044755;28;20036;-66
2023/08/02 04:36:07;;;;;;;18.02;4.10;;;;;;;;;;5045430;28;20029;-66
2023/08/02 04:38:33;;;;;;;15.18;4.90;;;;;;;;;;5030446;28;20071;-67
2023/08/02 04:40:59;;;;;;;16.05;5.32;;;;;;;;;;5045976;28;20039;-66
2023/08/02 04:43:26;;;;;;;12.63;4.72;;;;;;;;;;5045348;28;20036;-67
2023/08/02 04:45:52;;;;;;;17.90;5.30;;;;;;;;;;5045751;28;20032;-67
2023/08/02 04:48:18;;;;;;;12.43;4.53;;;;;;;;;;5044029;28;20041;-67
2023/08/02 04:50:44;;;;;;;13.80;5.90;;;;;;;;;;5045557;28;20040;-67
2023/08/02 04:53:10;;;;;;;10.35;4.47;;;;;;;;;;5045505;28;20060;-67
2023/08/02 04:55:43;;;;;;;11.77;4.85;;;;;;;;;;5028610;28;20052;-66
2023/08/02 04:58:09;;;;;;;15.55;5.60;;;;;;;;;;5026916;28;20048;-66
2023/08/02 05:00:35;;;;;;;17.38;5.57;;;;;;;;;;5043484;28;20028;-67
2023/08/02 05:03:01;;;;;;;12.15;5.28;;;;;;;;;;5044576;28;20645;-67
2023/08/02 05:05:27;;;;;;;17.75;5.88;;;;;;;;;;5042256;28;20020;-67
2023/08/02 05:07:53;;;;;;;12.10;4.80;;;;;;;;;;5045128;28;20024;-67
2023/08/02 05:10:19;;;;;;;13.15;5.15;;;;;;;;;;5042471;28;20037;-67
2023/08/02 05:12:45;;;;;;;16.15;5.68;;;;;;;;;;5045716;28;20040;-66
2023/08/02 05:15:11;;;;;;;14.68;5.18;;;;;;;;;;5045899;28;20502;-67
2023/08/02 05:17:37;;;;;;;13.32;4.72;;;;;;;;;;5045814;28;20027;-67
2023/08/02 05:20:04;;;;;;;12.02;5.15;;;;;;;;;;5027486;28;20471;-67
2023/08/02 05:22:31;;;;;;;12.43;4.80;;;;;;;;;;5045799;28;20079;-67
2023/08/02 05:24:58;;;;;;;15.02;5.10;;;;;;;;;;5043687;28;20024;-67
2023/08/02 05:27:24;;;;;;;16.10;5.10;;;;;;;;;;5045353;28;20040;-67
2023/08/02 05:29:52;;;;;;;12.77;5.10;;;;;;;;;;5046285;28;20055;-66
2023/08/02 05:32:18;;;;;;;13.00;5.15;;;;;;;;;;5044722;28;20029;-67
2023/08/02 05:34:44;;;;;;;12.63;5.28;;;;;;;;;;5045964;28;20036;-67
2023/08/02 05:37:12;;;;;;;11.45;4.78;;;;;;;;;;5045427;28;20102;-67
2023/08/02 05:39:38;;;;;;;15.00;4.82;;;;;;;;;;5045509;28;20024;-66
2023/08/02 05:42:04;;;;;;;10.68;4.65;;;;;;;;;;5045406;28;20490;-67
2023/08/02 05:44:30;;;;;;;12.98;5.68;;;;;;;;;;5041646;28;20034;-67
2023/08/02 05:46:57;;;;;;;12.15;5.40;;;;;;;;;;5041006;28;20036;-67
2023/08/02 05:49:23;;;;;;;16.08;5.40;;;;;;;;;;5041788;28;20043;-67
2023/08/02 05:51:49;;;;;;;16.17;5.40;;;;;;;;;;5043362;28;20047;-66
2023/08/02 05:54:16;;;;;;;14.65;4.95;;;;;;;;;;5044264;28;20021;-66
2023/08/02 05:56:42;;;;;;;13.73;4.68;;;;;;;;;;5043785;28;20039;-66
2023/08/02 05:59:09;;;;;;;10.40;5.65;;;;;;;;;;5043805;28;20052;-66
2023/08/02 06:01:35;;;;;;;14.25;5.55;;;;;;;;;;5043340;28;20028;-67
2023/08/02 06:04:01;;;;;;;10.65;5.15;;;;;;;;;;5044522;28;21797;-67
2023/08/02 06:06:27;;;;;;;14.80;5.05;;;;;;;;;;5048099;28;20036;-66
2023/08/02 06:08:53;;;;;;;12.75;5.03;;;;;;;;;;5047980;28;20028;-66
2023/08/02 06:11:19;;;;;;;9.98;5.00;;;;;;;;;;5048401;28;20151;-66
2023/08/02 06:13:45;;;;;;;12.43;5.45;;;;;;;;;;5048934;28;20128;-66
2023/08/02 06:16:11;;;;;;;16.45;5.63;;;;;;;;;;5048004;28;20083;-67
2023/08/02 06:18:37;;;;;;;10.52;4.60;;;;;;;;;;5048405;28;20033;-67
2023/08/02 06:21:03;;;;;;;14.60;5.47;;;;;;;;;;5048294;28;20032;-66
2023/08/02 06:23:29;;;;;;;13.68;5.10;;;;;;;;;;5047482;28;20090;-67
2023/08/02 06:25:55;;;;;;;11.40;5.32;;;;;;;;;;5046700;28;20117;-67
2023/08/02 06:28:21;;;;;;;10.15;5.18;;;;;;;;;;5046173;28;20040;-66
2023/08/02 06:30:47;;;;;;;12.40;5.32;;;;;;;;;;5047756;28;20048;-66
2023/08/02 06:33:13;;;;;;;13.55;5.32;;;;;;;;;;5046017;28;20069;-67
2023/08/02 06:35:39;;;;;;;13.02;5.47;;;;;;;;;;5046509;28;20033;-67
2023/08/02 06:38:05;;;;;;;13.80;5.47;;;;;;;;;;5046989;28;20028;-66
2023/08/02 06:40:34;;;;;;;12.25;6.20;;;;;;;;;;5044988;28;20658;-66
2023/08/02 06:43:00;;;;;;;11.20;5.57;;;;;;;;;;5045114;28;20045;-67
2023/08/02 06:45:26;;;;;;;13.32;6.35;;;;;;;;;;5044727;28;20032;-67
2023/08/02 06:47:52;;;;;;;13.80;6.50;;;;;;;;;;5045555;28;20033;-67
2023/08/02 06:50:18;;;;;;;11.00;6.10;;;;;;;;;;5047972;28;20032;-67
2023/08/02 06:52:44;;;;;;;19.63;6.45;;;;;;;;;;5045738;28;20039;-67
2023/08/02 06:55:10;;;;;;;11.77;6.47;;;;;;;;;;5047889;28;20033;-67
2023/08/02 06:57:36;;;;;;;12.13;6.38;;;;;;;;;;5045995;28;20072;-67
2023/08/02 07:00:02;;;;;;;16.45;6.68;;;;;;;;;;5046411;28;20043;-67
2023/08/02 07:02:28;;;;;;;15.93;7.20;;;;;;;;;;5045222;28;20116;-67
2023/08/02 07:04:54;;;;;;;10.65;5.90;;;;;;;;;;5043762;28;20067;-67
2023/08/02 07:07:21;;;;;;;15.20;6.13;;;;;;;;;;5047893;28;20076;-67
2023/08/02 07:09:50;;;;;;;14.43;6.57;;;;;;;;;;5046280;28;20032;-67
2023/08/02 07:12:19;;;;;;;15.23;5.70;;;;;;;;;;5044126;28;20119;-67
2023/08/02 07:14:45;;;;;;;13.32;6.18;;;;;;;;;;5046565;28;20692;-66
2023/08/02 07:17:11;;;;;;;12.10;6.30;;;;;;;;;;5046556;28;20051;-67
2023/08/02 07:19:37;;;;;;;13.65;5.30;;;;;;;;;;5045727;28;20036;-67
2023/08/02 07:22:06;;;;;;;13.13;5.88;;;;;;;;;;5047078;28;20058;-67
2023/08/02 07:24:32;;;;;;;10.65;4.93;;;;;;;;;;5046416;28;20044;-67
2023/08/02 07:26:58;;;;;;;13.20;4.97;;;;;;;;;;5045264;28;20038;-67
2023/08/02 07:29:24;;;;;;;12.43;4.97;;;;;;;;;;5046135;28;20115;-67
2023/08/02 07:31:50;;;;;;;14.18;5.45;;;;;;;;;;5045830;28;20044;-67
2023/08/02 07:34:16;;;;;;;16.65;5.53;;;;;;;;;;5045493;28;20033;-67
2023/08/02 07:36:42;;;;;;;12.20;4.95;;;;;;;;;;5044371;28;20069;-64
2023/08/02 07:39:08;;;;;;;10.25;4.35;;;;;;;;;;5045031;28;20779;-64
2023/08/02 07:41:34;;;;;;;11.98;4.50;;;;;;;;;;5045562;28;20112;-64
2023/08/02 07:44:00;;;;;;;11.18;4.88;;;;;;;;;;5042241;28;20114;-64
2023/08/02 07:46:26;;;;;;;10.43;4.15;;;;;;;;;;5045117;28;20104;-64
2023/08/02 07:48:53;;;;;;;13.45;4.78;;;;;;;;;;5046769;28;20094;-64
2023/08/02 07:51:19;;;;;;;10.77;4.30;;;;;;;;;;5044149;28;20079;-63
2023/08/02 07:53:45;;;;;;;11.45;4.22;;;;;;;;;;5045102;28;20055;-64
2023/08/02 07:56:11;;;;;;;10.68;4.10;;;;;;;;;;5046171;28;20028;-64
2023/08/02 07:58:37;;;;;;;10.57;4.20;;;;;;;;;;5045585;28;20044;-64
2023/08/02 08:01:08;;;;;;;9.75;3.90;;;;;;;;;;5046088;28;20040;-64
2023/08/02 08:03:34;;;;;;;11.43;3.97;;;;;;;;;;5045893;28;20480;-63
2023/08/02 08:06:00;;;;;;;14.68;4.60;;;;;;;;;;5043007;28;20036;-64
2023/08/02 08:08:26;;;;;;;11.02;3.63;;;;;;;;;;5044916;28;20036;-64
2023/08/02 08:10:52;;;;;;;13.02;4.13;;;;;;;;;;5045156;28;20036;-65
2023/08/02 08:13:19;;;;;;;10.15;3.97;;;;;;;;;;5046033;28;20032;-64
2023/08/02 08:15:45;;;;;;;9.98;3.75;;;;;;;;;;5026411;28;20079;-64
2023/08/02 08:18:11;;;;;;;10.57;3.60;;;;;;;;;;5043107;28;20037;-64
2023/08/02 08:20:37;;;;;;;13.73;3.72;;;;;;;;;;5041680;28;20086;-64
2023/08/02 08:23:03;;;;;;;9.75;3.75;;;;;;;;;;5041222;28;20039;-64
2023/08/02 08:25:29;;;;;;;13.98;3.97;;;;;;;;;;5044442;28;20049;-64
2023/08/02 08:27:55;;;;;;;10.30;3.58;;;;;;;;;;5045758;28;20036;-65
2023/08/02 08:30:21;;;;;;;10.10;3.67;;;;;;;;;;5045622;28;20036;-64
2023/08/02 08:32:47;;;;;;;10.55;4.10;;;;;;;;;;5044005;28;20055;-64
2023/08/02 08:35:13;;;;;;;11.82;3.47;;;;;;;;;;5045434;28;20040;-64
2023/08/02 08:37:39;;;;;;;11.55;4.05;;;;;;;;;;5045573;28;20095;-64
2023/08/02 08:40:06;;;;;;;10.32;3.13;;;;;;;;;;5044891;28;20035;-65
2023/08/02 08:42:32;;;;;;;10.25;3.90;;;;;;;;;;5045223;28;20037;-64
2023/08/02 08:44:58;;;;;;;10.35;3.30;;;;;;;;;;5046213;28;20047;-65
2023/08/02 08:47:24;;;;;;;9.77;3.95;;;;;;;;;;5044797;28;20098;-64
2023/08/02 08:49:51;;;;;;;14.32;3.83;;;;;;;;;;5027105;28;20730;-64
2023/08/02 08:52:17;;;;;;;12.48;3.65;;;;;;;;;;5044655;28;20158;-64
2023/08/02 08:54:44;;;;;;;8.30;3.85;;;;;;;;;;5045856;28;20074;-64
2023/08/02 08:57:10;;;;;;;16.70;4.03;;;;;;;;;;5046248;28;21730;-65
2023/08/02 08:59:37;;;;;;;12.77;4.15;;;;;;;;;;5045417;28;20090;-64
2023/08/02 09:02:05;;;;;;;14.07;4.45;;;;;;;;;;5044774;28;20040;-65
2023/08/02 09:04:31;;;;;;;15.13;4.65;;;;;;;;;;5044196;28;20105;-64
2023/08/02 09:06:57;;;;;;;10.75;4.57;;;;;;;;;;5043944;28;20079;-63
2023/08/02 09:09:23;;;;;;;10.40;3.55;;;;;;;;;;5044108;28;20119;-62
2023/08/02 09:11:49;;;;;;;13.55;3.92;;;;;;;;;;5044445;28;20045;-63
2023/08/02 09:14:17;;;;;;;20.45;4.20;;;;;;;;;;5042876;28;20723;-64
2023/08/02 09:16:58;;;;;;;10.93;3.75;;;;;;;;;;5023826;28;20041;-64
2023/08/02 09:19:27;;;;;;;10.10;3.65;;;;;;;;;;5044388;28;20036;-64
2023/08/02 09:22:24;;;;;;;10.88;3.38;;;;;;;;;;5044194;28;20024;-65
2023/08/02 09:24:50;;;;;;;13.18;4.55;;;;;;;;;;5031758;28;20041;-65
2023/08/02 09:27:18;;;;;;;9.90;3.95;;;;;;;;;;5046100;28;20649;-65
2023/08/02 09:29:51;;;;;;;10.10;4.05;;;;;;;;;;5046133;28;20072;-65
2023/08/02 09:32:17;;;;;;;12.25;4.25;;;;;;;;;;5045785;28;20060;-65
2023/08/02 09:34:49;;;;;;;11.80;4.10;;;;;;;;;;5045197;28;20024;-66
2023/08/02 09:37:16;;;;;;;10.95;3.70;;;;;;;;;;5044227;28;20033;-65
2023/08/02 09:39:49;;;;;;;10.88;4.30;;;;;;;;;;5049102;28;20621;-65
2023/08/02 09:42:17;;;;;;;;;;;;;;;;;;5051723;28;20035;-65
2023/08/02 09:44:50;;;;;;;10.30;3.95;;;;;;;;;;5052044;28;20367;-65
2023/08/02 09:47:16;;;;;;;9.82;4.30;;;;;;;;;;5051930;28;20032;-65
2023/08/02 09:49:42;;;;;;;10.65;4.53;;;;;;;;;;5051563;28;20047;-65
2023/08/02 09:52:09;;;;;;;13.70;4.82;;;;;;;;;;5050926;28;20053;-66
2023/08/02 09:54:35;;;;;;;11.18;5.05;;;;;;;;;;5049788;28;20153;-65
2023/08/02 09:57:05;;;;;;;8.57;4.53;;;;;;;;;;5030887;28;21556;-65
2023/08/02 09:59:31;;;;;;;10.43;5.10;;;;;;;;;;5048755;28;20036;-65
2023/08/02 10:01:57;;;;;;;8.10;4.13;;;;;;;;;;5051638;28;20039;-65
2023/08/02 10:04:24;;;;;;;13.60;5.78;;;;;;;;;;5047871;28;20024;-65
2023/08/02 10:06:53;;;;;;;15.05;5.30;;;;;;;;;;5048787;28;20037;-65
2023/08/02 10:09:38;;;;;;;15.35;4.90;;;;;;;;;;5049415;28;20076;-65
2023/08/02 10:12:17;;;;;;;10.40;4.45;;;;;;;;;;5050127;28;21350;-65
2023/08/02 10:14:43;;;;;;;10.50;4.22;;;;;;;;;;5047920;28;20044;-65
2023/08/02 10:17:10;;;;;;;9.57;4.65;;;;;;;;;;5048838;28;20024;-65
2023/08/02 10:19:36;;;;;;;8.50;4.40;;;;;;;;;;5045319;28;20024;-66
2023/08/02 10:22:06;;;;;;;11.85;4.95;;;;;;;;;;5048496;28;20050;-65
2023/08/02 10:24:32;;;;;;;13.98;4.95;;;;;;;;;;5029798;28;20109;-65
2023/08/02 10:27:01;;;;;;;13.80;5.03;;;;;;;;;;5046302;28;20047;-65
2023/08/02 10:29:29;;;;;;;12.60;4.75;;;;;;;;;;5045852;28;20116;-65
2023/08/02 10:31:55;;;;;;;11.05;4.53;;;;;;;;;;5046088;28;20502;-65
2023/08/02 10:34:44;;;;;;;10.48;5.10;;;;;;;;;;5047052;28;20068;-65
2023/08/02 10:37:10;;;;;;;10.57;4.63;;;;;;;;;;5046313;28;20809;-65
2023/08/02 10:39:45;;;;;;;7.85;4.70;;;;;;;;;;5047029;28;20032;-65
2023/08/02 10:42:12;;;;;;;10.15;4.55;;;;;;;;;;5046871;28;20041;-65
2023/08/02 10:44:58;;;;;;;14.80;5.40;;;;;;;;;;5047478;28;21559;-65
2023/08/02 10:47:34;;;;;;;13.23;4.80;;;;;;;;;;5048248;28;20659;-65
2023/08/02 10:50:03;;;;;;;9.98;4.43;;;;;;;;;;5047040;28;20399;-65
2023/08/02 10:52:29;;;;;;;11.55;4.47;;;;;;;;;;5047708;28;20036;-66
2023/08/02 10:55:14;;;;;;;16.08;5.38;;;;;;;;;;5049553;28;21036;-66
2023/08/02 10:57:55;;;;;;;7.32;3.78;;;;;;;;;;5046476;28;20031;-66
2023/08/02 11:00:30;;;;;;;8.45;3.88;;;;;;;;;;5048614;28;20028;-66
2023/08/02 11:02:56;;;;;;;16.42;3.83;;;;;;;;;;5048614;28;20036;-67
2023/08/02 11:05:38;;;;;;;7.45;3.10;;;;;;;;;;5033894;28;20052;-66
2023/08/02 11:08:04;;;;;;;5.38;2.60;;;;;;;;;;5048438;28;20118;-66
2023/08/02 11:10:30;;;;;;;4.00;2.40;;;;;;;;;;5047610;28;20036;-67
2023/08/02 11:12:56;;;;;;;5.03;2.58;;;;;;;;;;5048701;28;21756;-66
2023/08/02 11:15:25;;;;;;;4.53;2.20;;;;;;;;;;5048295;28;20032;-67
2023/08/02 11:17:56;;;;;;;4.30;2.10;;;;;;;;;;5049361;28;20056;-67
2023/08/02 11:20:26;;;;;;;4.07;1.90;;;;;;;;;;5047335;28;20051;-67
2023/08/02 11:22:52;;;;;;;4.60;2.20;;;;;;;;;;5047594;28;20074;-67
2023/08/02 11:25:20;;;;;;;5.10;1.83;;;;;;;;;;5047650;28;20055;-67
2023/08/02 11:27:46;;;;;;;4.63;2.10;;;;;;;;;;5045467;28;20029;-67
2023/08/02 11:30:12;;;;;;;4.68;1.90;;;;;;;;;;5046306;28;20051;-66
2023/08/02 11:32:45;;;;;;;5.65;2.08;;;;;;;;;;5048000;28;20613;-66
2023/08/02 11:35:29;;;;;;;3.28;1.83;;;;;;;;;;5048527;28;20037;-66
2023/08/02 11:37:55;;;;;;;5.22;1.88;;;;;;;;;;5047320;28;20044;-66
2023/08/02 11:40:21;;;;;;;2.78;1.52;;;;;;;;;;5048648;28;20033;-66
2023/08/02 11:42:48;;;;;;;6.80;1.60;;;;;;;;;;5047392;28;20051;-66
2023/08/02 11:45:14;;;;;;;2.95;1.48;;;;;;;;;;5031291;28;20031;-66
2023/08/02 11:47:40;;;;;;;2.97;1.40;;;;;;;;;;5046624;28;20115;-65
2023/08/02 11:50:07;;;;;;;3.83;1.60;;;;;;;;;;5046996;28;20040;-66
2023/08/02 11:52:33;;;;;;;4.32;1.80;;;;;;;;;;5047307;28;20049;-66
2023/08/02 11:55:00;;;;;;;4.00;1.80;;;;;;;;;;5030683;28;20028;-66
2023/08/02 11:57:27;;;;;;;6.22;1.88;;;;;;;;;;5046707;28;20078;-66
2023/08/02 11:59:56;;;;;;;6.30;2.50;;;;;;;;;;5047696;28;20051;-66
2023/08/02 12:02:32;;;;;;;2.67;1.60;;;;;;;;;;5048211;28;20068;-66
2023/08/02 12:05:05;;;;;;;2.88;1.80;;;;;;;;;;5048518;28;20032;-66
2023/08/02 12:07:31;;;;;;;3.22;1.80;;;;;;;;;;5032110;28;20028;-66
2023/08/02 12:09:57;;;;;;;2.80;1.38;;;;;;;;;;5046684;28;20044;-65
2023/08/02 12:12:30;;;;;;;3.67;1.70;;;;;;;;;;5031298;28;20037;-66
2023/08/02 12:14:57;;;;;;;2.30;1.35;;;;;;;;;;5048331;28;20111;-66
2023/08/02 12:17:24;;;;;;;2.92;1.30;;;;;;;;;;5048066;28;20067;-65
2023/08/02 12:19:53;;;;;;;4.93;1.85;;;;;;;;;;5048187;28;20261;-66
2023/08/02 12:22:19;;;;;;;4.15;1.80;;;;;;;;;;5049104;28;20037;-65
2023/08/02 12:25:03;;;;;;;3.20;1.45;;;;;;;;;;5047524;28;20617;-65
2023/08/02 12:27:29;;;;;;;3.47;1.70;;;;;;;;;;5048149;28;20028;-65
2023/08/02 12:30:07;;;;;;;2.95;1.73;;;;;;;;;;5047007;28;20142;-66
2023/08/02 12:32:33;;;;;;;2.70;1.50;;;;;;;;;;5047512;28;20028;-66
2023/08/02 12:35:05;;;;;;;3.25;1.70;;;;;;;;;;5048818;28;20578;-66
2023/08/02 12:37:31;;;;;;;3.75;2.28;;;;;;;;;;5048008;28;20020;-65
2023/08/02 12:39:58;;;;;;;3.42;2.05;;;;;;;;;;5044790;28;20036;-66
2023/08/02 12:42:24;;;;;;;4.15;2.30;;;;;;;;;;5049022;28;20044;-66
2023/08/02 12:44:50;;;;;;;3.90;2.50;;;;;;;;;;5046843;28;20036;-65
2023/08/02 12:47:16;;;;;;;5.10;3.25;;;;;;;;;;5048336;28;20039;-65
2023/08/02 12:49:44;;;;;;;5.30;3.53;;;;;;;;;;5048262;28;20032;-65
2023/08/02 12:52:10;;;;;;;5.28;3.30;;;;;;;;;;5048366;28;20752;-65
2023/08/02 12:54:36;;;;;;;4.80;3.13;;;;;;;;;;5047341;28;20078;-65
2023/08/02 12:57:02;;;;;;;4.97;3.47;;;;;;;;;;5049522;28;20047;-65
2023/08/02 12:59:28;;;;;;;5.93;3.53;;;;;;;;;;5048498;28;20048;-66
2023/08/02 13:01:54;;;;;;;5.60;3.97;;;;;;;;;;5047596;28;20040;-65
2023/08/02 13:04:20;;;;;;;5.13;3.67;;;;;;;;;;5048051;28;20036;-65
2023/08/02 13:06:47;;;;;;;6.47;3.45;;;;;;;;;;5048105;28;20039;-65
2023/08/02 13:09:14;;;;;;;6.25;3.15;;;;;;;;;;5046449;28;20041;-65
2023/08/02 13:11:40;;;;;;;9.40;5.43;;;;;;;;;;5048299;28;20036;-65
2023/08/02 13:14:06;;;;;;;6.38;4.10;;;;;;;;;;5047986;28;20086;-65
2023/08/02 13:16:32;;;;;;;8.45;4.40;;;;;;;;;;5048422;28;20155;-65
2023/08/02 13:19:00;;;;;;;6.90;4.55;;;;;;;;;;5048326;28;20037;-65
2023/08/02 13:21:26;;;;;;;6.97;4.22;;;;;;;;;;5047777;28;20157;-65
2023/08/02 13:23:52;;;;;;;8.43;5.05;;;;;;;;;;5045680;28;20953;-65
2023/08/02 13:26:18;;;;;;;7.70;4.10;;;;;;;;;;5048550;28;20036;-65
2023/08/02 13:28:44;;;;;;;5.57;3.45;;;;;;;;;;5029849;28;20136;-65
2023/08/02 13:31:10;;;;;;;6.80;4.13;;;;;;;;;;5048577;28;20044;-65
2023/08/02 13:33:41;;;;;;;8.23;4.22;;;;;;;;;;5048664;28;20059;-65
2023/08/02 13:36:07;;;;;;;5.75;4.22;;;;;;;;;;5048253;28;21379;-65
2023/08/02 13:38:33;;;;;;;7.57;4.43;;;;;;;;;;5047617;28;20028;-65
2023/08/02 13:40:59;;;;;;;9.00;3.78;;;;;;;;;;5047441;28;20098;-65
2023/08/02 13:43:26;;;;;;;8.07;3.83;;;;;;;;;;5047314;28;20055;-65
2023/08/02 13:45:52;;;;;;;6.93;3.97;;;;;;;;;;5048315;28;20039;-65
2023/08/02 13:48:18;;;;;;;6.63;3.33;;;;;;;;;;5048278;28;20047;-65
2023/08/02 13:50:45;;;;;;;7.38;3.47;;;;;;;;;;5047252;28;20063;-65
2023/08/02 13:53:11;;;;;;;5.63;3.78;;;;;;;;;;5047345;28;20482;-66
2023/08/02 13:55:37;;;;;;;5.10;2.95;;;;;;;;;;5047708;28;20030;-65
2023/08/02 13:58:05;;;;;;;6.20;2.83;;;;;;;;;;5046150;28;20048;-65
2023/08/02 14:00:32;;;;;;;4.88;3.20;;;;;;;;;;5043833;28;20028;-65
2023/08/02 14:02:58;;;;;;;4.85;3.00;;;;;;;;;;5046664;28;20029;-66
2023/08/02 14:05:24;;;;;;;7.35;3.60;;;;;;;;;;5046396;28;20157;-65
2023/08/02 14:07:50;;;;;;;7.47;2.97;;;;;;;;;;5045760;28;20028;-65
2023/08/02 14:10:16;;;;;;;6.22;3.20;;;;;;;;;;5047128;28;20041;-65
2023/08/02 14:12:42;;;;;;;5.93;3.17;;;;;;;;;;5029516;28;20734;-65
2023/08/02 14:15:08;;;;;;;5.35;3.78;;;;;;;;;;5047830;28;20037;-65
2023/08/02 14:17:35;;;;;;;8.57;3.88;;;;;;;;;;5048126;28;20154;-65
2023/08/02 14:20:01;;;;;;;7.78;3.97;;;;;;;;;;5045346;28;20036;-65
2023/08/02 14:22:27;;;;;;;7.38;3.35;;;;;;;;;;5028607;28;20099;-65
2023/08/02 14:24:53;;;;;;;9.27;3.45;;;;;;;;;;5047714;28;20068;-65
2023/08/02 14:27:19;;;;;;;5.22;1.60;;;;;;;;;;5050141;28;20106;-65
2023/08/02 14:29:45;;;;;;;8.07;2.10;;;;;;;;;;5048599;28;20032;-65
2023/08/02 14:32:11;;;;;;;5.25;1.45;;;;;;;;;;5048473;28;20036;-65
2023/08/02 14:34:37;;;;;;;4.00;0.90;;;;;;;;;;5046120;28;20102;-64
2023/08/02 14:37:03;;;;;;;4.22;0.90;;;;;;;;;;5048871;28;20036;-64